sensor_id;sensor_type;location;lat;lon;timestamp;P1;durP1;ratioP1;P2;durP2;ratioP2
6860;SDS011;3469;47.060;15.460;2023-07-20T04:41:48;0.60;;;0.20;;
6860;SDS011;3469;47.060;15.460;2023-07-20T05:53:00;0.50;;;0.20;;
6860;SDS011;3469;47.060;15.460;2023-07-20T05:56:16;0.50;;;0.20;;
6860;SDS011;3469;47.060;15.460;2023-07-20T05:58:45;0.50;;;0.20;;
6860;SDS011;3469;47.060;15.460;2023-07-20T06:01:14;0.60;;;0.47;;
6860;SDS011;3469;47.060;15.460;2023-07-20T06:03:42;0.50;;;0.20;;
6860;SDS011;3469;47.060;15.460;2023-07-20T06:09:52;0.50;;;0.20;;
6860;SDS011;3469;47.060;15.460;2023-07-20T06:12:20;0.40;;;0.20;;
6860;SDS011;3469;47.060;15.460;2023-07-20T06:14:48;0.47;;;0.20;;
6860;SDS011;3469;47.060;15.460;2023-07-20T06:17:17;0.43;;;0.20;;
6860;SDS011;3469;47.060;15.460;2023-07-20T06:19:47;0.40;;;0.20;;
6860;SDS011;3469;47.060;15.460;2023-07-20T06:22:15;0.50;;;0.30;;
6860;SDS011;3469;47.060;15.460;2023-07-20T06:24:44;0.50;;;0.20;;
6860;SDS011;3469;47.060;15.460;2023-07-20T06:27:14;0.40;;;0.20;;
6860;SDS011;3469;47.060;15.460;2023-07-20T06:29:42;0.43;;;0.20;;
6860;SDS011;3469;47.060;15.460;2023-07-20T06:42:55;0.40;;;0.20;;
6860;SDS011;3469;47.060;15.460;2023-07-20T06:45:27;0.50;;;0.20;;
6860;SDS011;3469;47.060;15.460;2023-07-20T06:47:55;0.40;;;0.20;;
6860;SDS011;3469;47.060;15.460;2023-07-20T06:50:23;0.43;;;0.30;;
6860;SDS011;3469;47.060;15.460;2023-07-20T06:52:53;0.67;;;0.67;;
6860;SDS011;3469;47.060;15.460;2023-07-20T06:55:24;0.50;;;0.20;;
6860;SDS011;3469;47.060;15.460;2023-07-20T06:57:59;0.50;;;0.20;;
6860;SDS011;3469;47.060;15.460;2023-07-20T07:00:27;0.50;;;0.20;;
6860;SDS011;3469;47.060;15.460;2023-07-20T07:02:55;0.50;;;0.20;;
6860;SDS011;3469;47.060;15.460;2023-07-20T07:05:24;0.40;;;0.20;;
6860;SDS011;3469;47.060;15.460;2023-07-20T07:08:02;0.50;;;0.20;;
6860;SDS011;3469;47.060;15.460;2023-07-20T07:10:31;0.50;;;0.20;;
6860;SDS011;3469;47.060;15.460;2023-07-20T07:13:01;123.47;;;25.47;;
6860;SDS011;3469;47.060;15.460;2023-07-20T07:15:31;0.70;;;0.20;;
6860;SDS011;3469;47.060;15.460;2023-07-20T07:18:00;0.70;;;0.20;;
6860;SDS011;3469;47.060;15.460;2023-07-20T07:20:30;0.70;;;0.20;;
6860;SDS011;3469;47.060;15.460;2023-07-20T07:22:58;0.70;;;0.30;;
6860;SDS011;3469;47.060;15.460;2023-07-20T07:25:27;0.70;;;0.20;;
6860;SDS011;3469;47.060;15.460;2023-07-20T08:19:27;0.70;;;0.20;;
6860;SDS011;3469;47.060;15.460;2023-07-20T08:21:55;0.70;;;0.20;;
6860;SDS011;3469;47.060;15.460;2023-07-20T08:24:23;0.70;;;0.20;;
6860;SDS011;3469;47.060;15.460;2023-07-20T08:26:52;0.70;;;0.20;;
6860;SDS011;3469;47.060;15.460;2023-07-20T08:29:20;0.70;;;0.20;;
6860;SDS011;3469;47.060;15.460;2023-07-20T08:31:48;0.70;;;0.20;;
6860;SDS011;3469;47.060;15.460;2023-07-20T08:34:17;0.70;;;0.20;;
6860;SDS011;3469;47.060;15.460;2023-07-20T08:36:57;0.70;;;0.20;;
6860;SDS011;3469;47.060;15.460;2023-07-20T08:39:26;0.70;;;0.20;;
6860;SDS011;3469;47.060;15.460;2023-07-20T08:41:54;0.70;;;0.20;;
6860;SDS011;3469;47.060;15.460;2023-07-20T08:44:24;0.80;;;0.50;;
6860;SDS011;3469;47.060;15.460;2023-07-20T08:46:53;0.70;;;0.20;;
6860;SDS011;3469;47.060;15.460;2023-07-20T08:49:22;1.00;;;0.63;;
6860;SDS011;3469;47.060;15.460;2023-07-20T08:52:08;0.70;;;0.20;;
6860;SDS011;3469;47.060;15.460;2023-07-20T08:54:37;0.70;;;0.20;;
6860;SDS011;3469;47.060;15.460;2023-07-20T08:57:05;0.70;;;0.40;;
6860;SDS011;3469;47.060;15.460;2023-07-20T08:59:35;0.70;;;0.30;;
6860;SDS011;3469;47.060;15.460;2023-07-20T09:02:04;0.70;;;0.20;;
6860;SDS011;3469;47.060;15.460;2023-07-20T09:04:33;0.70;;;0.20;;
6860;SDS011;3469;47.060;15.460;2023-07-20T09:07:02;0.70;;;0.23;;
6860;SDS011;3469;47.060;15.460;2023-07-20T09:09:31;0.70;;;0.20;;
6860;SDS011;3469;47.060;15.460;2023-07-20T09:12:00;0.70;;;0.20;;
6860;SDS011;3469;47.060;15.460;2023-07-20T09:14:28;0.70;;;0.20;;
6860;SDS011;3469;47.060;15.460;2023-07-20T09:16:58;0.70;;;0.20;;
6860;SDS011;3469;47.060;15.460;2023-07-20T09:19:27;1.27;;;0.70;;
6860;SDS011;3469;47.060;15.460;2023-07-20T09:21:55;1.17;;;0.60;;
6860;SDS011;3469;47.060;15.460;2023-07-20T09:24:28;0.70;;;0.40;;
6860;SDS011;3469;47.060;15.460;2023-07-20T09:26:58;0.70;;;0.20;;
6860;SDS011;3469;47.060;15.460;2023-07-20T09:29:30;0.60;;;0.20;;
6860;SDS011;3469;47.060;15.460;2023-07-20T09:31:58;0.70;;;0.20;;
6860;SDS011;3469;47.060;15.460;2023-07-20T09:34:28;0.70;;;0.20;;
6860;SDS011;3469;47.060;15.460;2023-07-20T09:37:01;3.10;;;1.80;;
6860;SDS011;3469;47.060;15.460;2023-07-20T09:39:31;0.67;;;0.20;;
6860;SDS011;3469;47.060;15.460;2023-07-20T09:42:01;0.70;;;0.30;;
6860;SDS011;3469;47.060;15.460;2023-07-20T09:44:34;0.70;;;0.20;;
6860;SDS011;3469;47.060;15.460;2023-07-20T09:47:05;0.67;;;0.20;;
6860;SDS011;3469;47.060;15.460;2023-07-20T09:49:37;0.70;;;0.20;;
6860;SDS011;3469;47.060;15.460;2023-07-20T09:52:10;0.70;;;0.20;;
6860;SDS011;3469;47.060;15.460;2023-07-20T09:54:39;0.70;;;0.20;;
6860;SDS011;3469;47.060;15.460;2023-07-20T09:57:09;0.70;;;0.20;;
6860;SDS011;3469;47.060;15.460;2023-07-20T09:59:39;0.70;;;0.20;;
6860;SDS011;3469;47.060;15.460;2023-07-20T10:02:11;0.70;;;0.20;;
6860;SDS011;3469;47.060;15.460;2023-07-20T10:04:43;1463.53;;;689.97;;
6860;SDS011;3469;47.060;15.460;2023-07-20T10:07:11;0.50;;;0.20;;
6860;SDS011;3469;47.060;15.460;2023-07-20T10:09:40;0.50;;;0.20;;
6860;SDS011;3469;47.060;15.460;2023-07-20T10:12:11;0.50;;;0.20;;
6860;SDS011;3469;47.060;15.460;2023-07-20T10:14:44;0.50;;;0.20;;
6860;SDS011;3469;47.060;15.460;2023-07-20T10:17:17;0.50;;;0.20;;
6860;SDS011;3469;47.060;15.460;2023-07-20T10:19:46;0.50;;;0.20;;
6860;SDS011;3469;47.060;15.460;2023-07-20T10:22:19;0.50;;;0.20;;
6860;SDS011;3469;47.060;15.460;2023-07-20T10:24:50;0.50;;;0.20;;
6860;SDS011;3469;47.060;15.460;2023-07-20T10:27:22;0.50;;;0.30;;
6860;SDS011;3469;47.060;15.460;2023-07-20T10:29:51;0.50;;;0.20;;
6860;SDS011;3469;47.060;15.460;2023-07-20T10:32:20;0.50;;;0.20;;
6860;SDS011;3469;47.060;15.460;2023-07-20T10:34:50;0.50;;;0.20;;
6860;SDS011;3469;47.060;15.460;2023-07-20T10:40:26;0.47;;;0.20;;
6860;SDS011;3469;47.060;15.460;2023-07-20T10:42:59;0.50;;;0.20;;
6860;SDS011;3469;47.060;15.460;2023-07-20T10:45:34;0.50;;;0.20;;
6860;SDS011;3469;47.060;15.460;2023-07-20T10:48:13;0.50;;;0.20;;
6860;SDS011;3469;47.060;15.460;2023-07-20T10:50:42;0.47;;;0.20;;
6860;SDS011;3469;47.060;15.460;2023-07-20T10:53:12;0.50;;;0.20;;
6860;SDS011;3469;47.060;15.460;2023-07-20T10:55:42;0.50;;;0.20;;
6860;SDS011;3469;47.060;15.460;2023-07-20T10:58:12;2.30;;;1.50;;
6860;SDS011;3469;47.060;15.460;2023-07-20T11:00:55;0.50;;;0.20;;
6860;SDS011;3469;47.060;15.460;2023-07-20T11:03:26;0.40;;;0.20;;
6860;SDS011;3469;47.060;15.460;2023-07-20T11:05:59;0.50;;;0.20;;
6860;SDS011;3469;47.060;15.460;2023-07-20T11:08:39;0.50;;;0.20;;
6860;SDS011;3469;47.060;15.460;2023-07-20T11:11:21;0.50;;;0.30;;
6860;SDS011;3469;47.060;15.460;2023-07-20T11:13:55;0.40;;;0.20;;
6860;SDS011;3469;47.060;15.460;2023-07-20T11:16:34;0.50;;;0.20;;
6860;SDS011;3469;47.060;15.460;2023-07-20T11:19:03;0.50;;;0.30;;
6860;SDS011;3469;47.060;15.460;2023-07-20T11:21:36;0.50;;;0.20;;
6860;SDS011;3469;47.060;15.460;2023-07-20T11:24:26;0.47;;;0.20;;
6860;SDS011;3469;47.060;15.460;2023-07-20T11:26:54;0.50;;;0.33;;
6860;SDS011;3469;47.060;15.460;2023-07-20T11:29:24;0.50;;;0.40;;
6860;SDS011;3469;47.060;15.460;2023-07-20T11:31:56;0.50;;;0.20;;
6860;SDS011;3469;47.060;15.460;2023-07-20T11:34:25;214.63;;;195.70;;
6860;SDS011;3469;47.060;15.460;2023-07-20T11:36:54;34.50;;;2.13;;
6860;SDS011;3469;47.060;15.460;2023-07-20T11:39:25;35.53;;;0.60;;
6860;SDS011;3469;47.060;15.460;2023-07-20T11:41:54;34.43;;;0.50;;
6860;SDS011;3469;47.060;15.460;2023-07-20T11:44:25;39.80;;;0.60;;
6860;SDS011;3469;47.060;15.460;2023-07-20T11:47:01;40.97;;;0.70;;
6860;SDS011;3469;47.060;15.460;2023-07-20T11:49:34;42.10;;;0.60;;
6860;SDS011;3469;47.060;15.460;2023-07-20T11:52:03;1999.90;;;999.90;;
6860;SDS011;3469;47.060;15.460;2023-07-20T11:54:32;1999.90;;;999.90;;
6860;SDS011;3469;47.060;15.460;2023-07-20T11:57:01;1999.90;;;999.90;;
6860;SDS011;3469;47.060;15.460;2023-07-20T11:59:31;1999.90;;;999.90;;
6860;SDS011;3469;47.060;15.460;2023-07-20T12:02:00;1999.90;;;999.90;;
6860;SDS011;3469;47.060;15.460;2023-07-20T12:04:30;1999.90;;;999.90;;
6860;SDS011;3469;47.060;15.460;2023-07-20T12:06:59;1999.90;;;999.90;;
6860;SDS011;3469;47.060;15.460;2023-07-20T12:09:27;1999.90;;;999.90;;
6860;SDS011;3469;47.060;15.460;2023-07-20T12:12:15;1999.90;;;999.90;;
6860;SDS011;3469;47.060;15.460;2023-07-20T12:14:47;1999.90;;;999.90;;
6860;SDS011;3469;47.060;15.460;2023-07-20T12:17:16;1999.90;;;999.90;;
6860;SDS011;3469;47.060;15.460;2023-07-20T12:19:45;1999.90;;;999.90;;
6860;SDS011;3469;47.060;15.460;2023-07-20T12:22:13;1999.90;;;999.90;;
6860;SDS011;3469;47.060;15.460;2023-07-20T12:24:41;155.63;;;55.80;;
6860;SDS011;3469;47.060;15.460;2023-07-20T12:27:12;1999.90;;;999.90;;
6860;SDS011;3469;47.060;15.460;2023-07-20T12:29:45;1999.90;;;999.90;;
6860;SDS011;3469;47.060;15.460;2023-07-20T12:32:14;136.73;;;122.13;;
6860;SDS011;3469;47.060;15.460;2023-07-20T14:17:44;0.50;;;0.20;;
6860;SDS011;3469;47.060;15.460;2023-07-20T14:20:12;0.40;;;0.20;;
6860;SDS011;3469;47.060;15.460;2023-07-20T14:22:44;0.40;;;0.20;;
6860;SDS011;3469;47.060;15.460;2023-07-20T14:25:12;0.50;;;0.20;;
6860;SDS011;3469;47.060;15.460;2023-07-20T14:27:41;0.50;;;0.20;;
6860;SDS011;3469;47.060;15.460;2023-07-20T14:30:11;0.50;;;0.20;;
6860;SDS011;3469;47.060;15.460;2023-07-20T14:32:43;0.40;;;0.20;;
6860;SDS011;3469;47.060;15.460;2023-07-20T14:35:11;0.50;;;0.20;;
6860;SDS011;3469;47.060;15.460;2023-07-20T14:37:41;0.40;;;0.20;;
6860;SDS011;3469;47.060;15.460;2023-07-20T14:40:13;0.47;;;0.20;;
6860;SDS011;3469;47.060;15.460;2023-07-20T14:42:42;0.50;;;0.30;;
6860;SDS011;3469;47.060;15.460;2023-07-20T14:45:10;0.50;;;0.20;;
6860;SDS011;3469;47.060;15.460;2023-07-20T14:47:38;0.50;;;0.20;;
6860;SDS011;3469;47.060;15.460;2023-07-20T14:50:09;0.50;;;0.20;;
6860;SDS011;3469;47.060;15.460;2023-07-20T14:52:38;0.40;;;0.20;;
6860;SDS011;3469;47.060;15.460;2023-07-20T14:55:15;0.50;;;0.20;;
6860;SDS011;3469;47.060;15.460;2023-07-20T14:57:43;0.50;;;0.30;;
6860;SDS011;3469;47.060;15.460;2023-07-20T15:00:12;0.40;;;0.20;;
6860;SDS011;3469;47.060;15.460;2023-07-20T15:02:41;0.40;;;0.20;;
6860;SDS011;3469;47.060;15.460;2023-07-20T15:05:12;0.40;;;0.20;;
6860;SDS011;3469;47.060;15.460;2023-07-20T15:07:48;0.50;;;0.20;;
6860;SDS011;3469;47.060;15.460;2023-07-20T15:10:16;0.40;;;0.20;;
6860;SDS011;3469;47.060;15.460;2023-07-20T15:12:45;0.50;;;0.20;;
6860;SDS011;3469;47.060;15.460;2023-07-20T15:15:14;0.50;;;0.20;;
6860;SDS011;3469;47.060;15.460;2023-07-20T15:17:43;0.40;;;0.20;;
6860;SDS011;3469;47.060;15.460;2023-07-20T15:20:15;0.50;;;0.20;;
6860;SDS011;3469;47.060;15.460;2023-07-20T15:22:44;0.50;;;0.20;;
6860;SDS011;3469;47.060;15.460;2023-07-20T15:25:15;0.50;;;0.40;;
6860;SDS011;3469;47.060;15.460;2023-07-20T15:27:43;0.50;;;0.20;;
6860;SDS011;3469;47.060;15.460;2023-07-20T15:30:16;0.50;;;0.20;;
6860;SDS011;3469;47.060;15.460;2023-07-20T15:32:48;0.50;;;0.30;;
6860;SDS011;3469;47.060;15.460;2023-07-20T15:35:21;0.50;;;0.20;;
6860;SDS011;3469;47.060;15.460;2023-07-20T15:37:49;0.40;;;0.20;;
6860;SDS011;3469;47.060;15.460;2023-07-20T15:40:19;0.50;;;0.20;;
6860;SDS011;3469;47.060;15.460;2023-07-20T15:42:48;0.50;;;0.20;;
6860;SDS011;3469;47.060;15.460;2023-07-20T15:45:20;0.50;;;0.20;;
6860;SDS011;3469;47.060;15.460;2023-07-20T15:47:49;0.50;;;0.20;;
6860;SDS011;3469;47.060;15.460;2023-07-20T15:50:17;0.50;;;0.20;;
6860;SDS011;3469;47.060;15.460;2023-07-20T15:52:50;0.50;;;0.20;;
6860;SDS011;3469;47.060;15.460;2023-07-20T15:55:19;0.50;;;0.20;;
6860;SDS011;3469;47.060;15.460;2023-07-20T15:57:47;0.50;;;0.20;;
6860;SDS011;3469;47.060;15.460;2023-07-20T16:00:16;0.50;;;0.30;;
6860;SDS011;3469;47.060;15.460;2023-07-20T16:02:45;0.50;;;0.20;;
6860;SDS011;3469;47.060;15.460;2023-07-20T16:05:17;2.70;;;1.50;;
6860;SDS011;3469;47.060;15.460;2023-07-20T16:07:45;0.50;;;0.20;;
6860;SDS011;3469;47.060;15.460;2023-07-20T16:10:15;0.50;;;0.27;;
6860;SDS011;3469;47.060;15.460;2023-07-20T16:12:44;0.50;;;0.20;;
6860;SDS011;3469;47.060;15.460;2023-07-20T16:15:13;0.50;;;0.20;;
6860;SDS011;3469;47.060;15.460;2023-07-20T16:18:02;0.60;;;0.50;;
6860;SDS011;3469;47.060;15.460;2023-07-20T16:20:30;0.50;;;0.20;;
6860;SDS011;3469;47.060;15.460;2023-07-20T16:22:58;0.50;;;0.20;;
6860;SDS011;3469;47.060;15.460;2023-07-20T16:25:28;0.43;;;0.20;;
6860;SDS011;3469;47.060;15.460;2023-07-20T16:27:56;0.50;;;0.20;;
6860;SDS011;3469;47.060;15.460;2023-07-20T16:30:27;0.50;;;0.20;;
6860;SDS011;3469;47.060;15.460;2023-07-20T16:32:55;0.50;;;0.20;;
6860;SDS011;3469;47.060;15.460;2023-07-20T16:35:28;0.50;;;0.20;;
6860;SDS011;3469;47.060;15.460;2023-07-20T16:38:01;0.50;;;0.20;;
6860;SDS011;3469;47.060;15.460;2023-07-20T16:40:35;0.50;;;0.30;;
6860;SDS011;3469;47.060;15.460;2023-07-20T18:45:06;0.50;;;0.20;;
